createdAt,value
2017-07-07T00:00:03.311Z,1002.83
2017-07-07T00:05:03.379Z,1002.88
2017-07-07T00:10:02.965Z,1002.91
2017-07-07T00:15:02.609Z,1002.82
2017-07-07T00:20:03.470Z,1002.89
2017-07-07T00:25:03.040Z,1002.92
2017-07-07T00:30:02.679Z,1002.79
2017-07-07T00:35:03.250Z,1002.68
2017-07-07T00:40:02.851Z,1002.65
2017-07-07T00:45:03.496Z,1002.57
2017-07-07T00:50:03.177Z,1002.57
2017-07-07T00:55:02.737Z,1002.57
2017-07-07T01:00:03.290Z,1002.49
2017-07-07T01:05:02.927Z,1002.37
2017-07-07T01:10:03.515Z,1002.33
2017-07-07T01:15:03.089Z,1002.25
2017-07-07T01:20:02.948Z,1002.19
2017-07-07T01:25:03.556Z,1002.2
2017-07-07T01:30:03.205Z,1002.01
2017-07-07T01:35:02.857Z,1001.97
2017-07-07T01:40:03.429Z,1001.84
2017-07-07T01:45:02.987Z,1001.85
2017-07-07T01:50:02.572Z,1001.76
2017-07-07T01:55:03.141Z,1001.61
2017-07-07T02:00:02.694Z,1001.49
2017-07-07T02:05:02.792Z,1001.38
2017-07-07T02:10:03.355Z,1001.27
2017-07-07T02:15:02.919Z,1001
2017-07-07T02:20:02.776Z,1001.01
2017-07-07T02:25:03.447Z,1001.04
2017-07-07T02:30:03.078Z,1001.15
2017-07-07T02:35:02.644Z,1001.33
2017-07-07T02:40:03.255Z,1001.44
2017-07-07T02:45:02.827Z,1001.43
2017-07-07T02:50:03.408Z,1001.58
2017-07-07T02:55:03.026Z,1001.61
2017-07-07T03:00:02.580Z,1001.56
2017-07-07T03:05:03.265Z,1001.56
2017-07-07T03:10:02.845Z,1001.57
2017-07-07T03:15:03.395Z,1001.63
2017-07-07T03:20:02.675Z,1001.5
2017-07-07T03:25:03.326Z,1001.71
2017-07-07T03:30:02.854Z,1001.77
2017-07-07T03:35:03.403Z,1002.03
2017-07-07T03:40:03.070Z,1002.06
2017-07-07T03:45:02.703Z,1001.99
2017-07-07T03:50:03.340Z,1002
2017-07-07T03:55:02.880Z,1001.92
2017-07-07T04:00:03.435Z,1002.03
2017-07-07T04:05:02.989Z,1001.92
2017-07-07T04:10:02.644Z,1001.91
2017-07-07T04:15:03.207Z,1001.99
2017-07-07T04:20:03.063Z,1001.8
2017-07-07T04:25:02.681Z,1001.91
2017-07-07T04:30:03.321Z,1001.85
2017-07-07T04:35:02.841Z,1001.74
2017-07-07T04:40:03.418Z,1001.7
2017-07-07T04:45:03.055Z,1001.66
2017-07-07T04:50:03.202Z,1001.71
2017-07-07T04:55:02.866Z,1001.6
2017-07-07T05:00:03.445Z,1001.4
2017-07-07T05:05:03.063Z,1001.29
2017-07-07T05:15:02.860Z,1001.2
2017-07-07T05:30:03.166Z,1001.01
2017-07-07T05:35:02.729Z,1001.03
2017-07-07T05:45:02.637Z,1001.22
2017-07-07T06:00:03.160Z,1001.27
2017-07-07T06:05:02.528Z,1001.23
2017-07-07T06:10:03.119Z,1001.44
2017-07-07T06:15:02.702Z,1001.46
2017-07-07T06:25:02.779Z,1001.52
2017-07-07T06:30:03.376Z,1001.58
2017-07-07T06:40:03.241Z,1001.49
2017-07-07T06:45:02.856Z,1001.4
2017-07-07T07:00:02.920Z,1001.37
2017-07-07T07:05:03.369Z,1001.18
2017-07-07T08:20:03.452Z,1000.98
2017-07-07T08:40:02.714Z,1001.47
2017-07-07T09:00:02.895Z,1001.14
2017-07-07T09:05:02.650Z,1001.28
2017-07-07T09:35:02.691Z,1001.25
2017-07-07T09:40:03.252Z,1001.16
2017-07-07T09:45:02.770Z,1001.13
2017-07-07T10:00:03.498Z,1001.14
2017-07-07T10:05:02.684Z,1001.33
2017-07-07T10:15:03.524Z,1001.14
2017-07-07T10:20:03.395Z,1001.12
2017-07-07T10:25:03.047Z,1001.25
2017-07-07T10:35:02.877Z,1001.34
2017-07-07T10:40:03.476Z,1001.4
2017-07-07T10:55:03.529Z,1001.28
2017-07-07T11:20:02.952Z,1001.18
2017-07-07T11:25:03.500Z,1001.21
2017-07-07T11:30:03.137Z,1001.28
2017-07-07T11:45:03.294Z,1001.5
2017-07-07T11:50:02.731Z,1001.46
2017-07-07T12:05:03.473Z,1001.4
2017-07-07T12:25:03.272Z,1001.4
2017-07-07T12:30:02.880Z,1001.52
2017-07-07T12:35:03.440Z,1001.44
2017-07-07T12:40:03.024Z,1001.35
2017-07-07T12:55:02.709Z,1001.4
2017-07-07T13:00:03.282Z,1001.39
2017-07-07T13:05:02.886Z,1001.37
2017-07-07T13:15:02.697Z,1001.39
2017-07-07T13:25:02.887Z,1001.3
2017-07-07T13:40:02.792Z,1001.25
2017-07-07T13:45:03.426Z,1001.22
2017-07-07T13:50:03.058Z,1001.25
2017-07-07T14:05:02.622Z,1001.32
2017-07-07T14:10:03.199Z,1001.38
2017-07-07T14:20:03.244Z,1001.31
2017-07-07T14:25:02.804Z,1001.19
2017-07-07T14:30:03.357Z,1001.14
2017-07-07T14:40:03.179Z,1001.24
2017-07-07T14:50:02.977Z,1001.29
2017-07-07T14:55:02.618Z,1001.35
2017-07-07T15:00:03.178Z,1001.27
2017-07-07T15:05:02.727Z,1001.25
2017-07-07T15:10:03.289Z,1001.26
2017-07-07T15:15:02.922Z,1001.36
2017-07-07T15:25:03.110Z,1001.42
2017-07-07T15:45:03.349Z,1001.27
2017-07-07T15:50:03.077Z,1001.18
2017-07-07T16:00:02.899Z,1001.07
2017-07-07T16:10:03.325Z,1000.88
2017-07-07T16:20:03.449Z,1000.97
2017-07-07T16:30:03.178Z,1001.06
2017-07-07T16:40:03.318Z,1000.99
2017-07-07T16:50:03.295Z,1001.07
2017-07-07T17:00:03.193Z,1000.91
2017-07-07T17:05:03.428Z,1000.83
2017-07-07T17:10:03.009Z,1000.7
2017-07-07T17:15:02.652Z,1000.74
2017-07-07T17:20:03.476Z,1000.78
2017-07-07T17:25:03.106Z,1000.85
2017-07-07T17:30:02.680Z,1000.97
2017-07-07T17:40:02.671Z,1001.07
2017-07-07T18:15:03.430Z,1001.12
2017-07-07T18:20:03.353Z,1001.06
2017-07-07T18:25:03.072Z,1001
2017-07-07T18:30:02.646Z,1001.02
2017-07-07T18:40:03.440Z,1001.31
2017-07-07T18:45:03.266Z,1001.21
2017-07-07T18:50:03.230Z,1001.36
2017-07-07T18:55:02.806Z,1001.65
2017-07-07T19:00:03.392Z,1002.19
2017-07-07T19:05:02.605Z,1002.36
2017-07-07T19:10:03.160Z,1002.07
2017-07-07T19:15:02.842Z,1002.02
2017-07-07T19:20:02.686Z,1002.24
2017-07-07T19:25:03.250Z,1002.93
2017-07-07T19:30:02.804Z,1003.07
2017-07-07T19:35:03.393Z,1003.06
2017-07-07T19:40:02.983Z,1002.84
2017-07-07T19:45:02.633Z,1002.53
2017-07-07T19:50:03.520Z,1002.5
2017-07-07T19:55:03.117Z,1002.7
2017-07-07T20:00:02.660Z,1002.61
2017-07-07T20:05:02.861Z,1002.55
2017-07-07T20:10:03.493Z,1002.53
2017-07-07T20:15:03.058Z,1002.73
2017-07-07T20:20:02.900Z,1002.6
2017-07-07T20:25:03.489Z,1002.57
2017-07-07T20:30:03.045Z,1002.71
2017-07-07T20:35:02.701Z,1002.82
2017-07-07T20:40:03.412Z,1002.78
2017-07-07T20:45:02.978Z,1002.87
2017-07-07T20:50:02.780Z,1002.93
2017-07-07T20:55:03.374Z,1002.96
2017-07-07T21:00:02.931Z,1002.81
2017-07-07T21:05:02.829Z,1002.97
2017-07-07T21:10:03.397Z,1002.86
2017-07-07T21:15:02.994Z,1002.95
2017-07-07T21:20:02.999Z,1003
2017-07-07T21:25:02.696Z,1002.97
2017-07-07T21:30:03.323Z,1002.96
2017-07-07T21:35:02.896Z,1003.04
2017-07-07T21:40:03.486Z,1003.1
2017-07-07T21:45:03.089Z,1002.95
2017-07-07T21:50:02.667Z,1002.91
2017-07-07T21:55:03.216Z,1002.84
2017-07-07T22:00:02.937Z,1002.8
2017-07-07T22:05:03.471Z,1002.93
2017-07-07T22:10:03.050Z,1002.95
2017-07-07T22:15:02.717Z,1003.08
2017-07-07T22:20:03.217Z,1003.18
2017-07-07T22:25:02.866Z,1003.1
2017-07-07T22:30:03.464Z,1003.1
2017-07-07T22:35:03.171Z,1003.01
2017-07-07T22:40:02.803Z,1002.94
2017-07-07T22:45:03.353Z,1003.1
2017-07-07T22:50:03.010Z,1003.05
2017-07-07T22:55:02.635Z,1002.93
2017-07-07T23:00:03.215Z,1003
2017-07-07T23:05:03.326Z,1002.97
2017-07-07T23:10:03.017Z,1003.02
2017-07-07T23:15:02.606Z,1002.96
2017-07-07T23:20:03.407Z,1002.9
2017-07-07T23:50:03.129Z,1002.9
